Řízení letového provozu České republiky  
Aktualizace dat:  17.02.2019 01:27:07 UTC English version
   METEO Zobrazení stránky:  17.02.2019 01:27:06 UTC  
vysvětlivky
METAR EDDB 170120Z 20003KT CAVOK 01/M02 Q1025 NOSIG=
METAR EDDC 170120Z 21007KT CAVOK 02/00 Q1026=
METAR EDDE 170120Z 20008KT CAVOK 03/M01 Q1026=
METAR EDDF 170120Z 00000KT CAVOK M02/M02 Q1026 NOSIG=
METAR EDDM 170120Z VRB01KT 9999 BCFG NSC M03/M04 Q1027 NOSIG=
METAR EDDN 170120Z VRB02KT CAVOK M01/M02 Q1027=
METAR EDDP 170120Z 20008KT CAVOK 05/M02 Q1025 NOSIG=
METAR EDDT 170120Z 24001KT CAVOK 00/M02 Q1024=
METAR EDQM NIL
METAR EPBY 170100Z 23002KT CAVOK 01/M01 Q1022 =
METAR EPGD 170100Z 27010KT 9999 FEW026 06/02 Q1019 =
METAR EPKK 170100Z 20003KT 4500 BR NSC M01/M03 Q1026 =
METAR EPKT 170100Z 21009KT 8000 NSC 03/M02 Q1025 =
METAR EPLL 170100Z 23004KT CAVOK 01/M01 Q1023 =
METAR EPPO 170100Z 27003KT CAVOK 02/M02 Q1024 R10/29//95 =
METAR EPRZ 170100Z 24007KT CAVOK 02/M01 Q1025 =
METAR EPWA 170100Z 27007KT CAVOK 06/M00 Q1022 NOSIG=
METAR EPWR 170100Z VRB02KT CAVOK M02/M04 Q1025 =
METAR LHBP 170100Z VRB02KT 2500 R13L/0325N FZBCFG BR NSC M03/M03 Q1029 BECMG 1200 FZBCFG BR=
METAR LHSM NIL
METAR LKBC 170100Z AUTO 06001KT CAVOK M03/M03 Q1026=
METAR LKCV 170100Z 15003KT CAVOK M01/M02 Q1027 NOSIG RMK BLU BLU=
METAR LKKB 170100Z 22005KT 7000 NSC M02/M04 Q1027 RMK WHT=
METAR LKKU NIL
METAR LKKV 170100Z 04002KT CAVOK M02/M03 Q1027 RMK REG QNH 1023=
METAR LKLN 170130Z AUTO 00000KT 6000 M03/M03 Q1028=
METAR LKMT 170100Z 25009KT CAVOK 01/M03 Q1027 NOSIG RMK REG QNH 1023=
METAR LKNA 170000Z 11003KT CAVOK 04/M01 Q1027 RMK BLU=
METAR LKPD 170100Z VRB01KT 4000 BR NSC M02/M03 Q1027 RMK GRN=
METAR LKPR 170100Z 22005KT CAVOK 02/M03 Q1027 NOSIG RMK REG QNH 1023=
METAR LKTB 170100Z 07002KT CAVOK M01/M02 Q1028 NOSIG RMK REG QNH 1023=
METAR LKVO NIL
METAR LOWI 170120Z AUTO VRB02KT 9999 NSC M03/M05 Q1030=
METAR LOWL 170120Z AUTO 29002KT 9999 NSC M03/M04 Q1029=
METAR LOWS 170120Z AUTO 15011KT 9999 NSC 03/M03 Q1028=
METAR LOWW 170120Z 19004KT CAVOK M01/M04 Q1028 NOSIG=
METAR LZIB 170100Z 02004KT CAVOK M00/M02 Q1029=
METAR LZKZ 170100Z 01003KT 7000 NSC M01/M02 Q1028=
METAR LZMC NIL
METAR LZPP 170100Z AUTO 05003KT 1300 R01/P2000N BR NCD M02/M03 Q1029=
SPECI LZSL 170109Z VRB01KT 0600 FZFG SCT002 M04/M05 Q1029=
METAR LZTT 170100Z VRB01KT CAVOK M04/M05 Q1026=
METAR LZZI 170100Z 09002KT 5000 BR NSC M03/M03 Q1029=